Time;durP1;ratioP1;P1;durP2;ratioP2;P2;SDS_P1;SDS_P2;PMS_P1;PMS_P2;Temp;Humidity;BMP_temperature;BMP_pressure;BME280_temperature;BME280_humidity;BME280_pressure;Samples;Min_cycle;Max_cycle;Signal;HPM_P1;HPM_P2
2024/03/15 00:01:19;;;;;;;63.10;54.40;;;;;;;8.72;57.58;100349.73;111107;1255;21963;-65
2024/03/15 00:03:47;;;;;;;58.90;49.70;;;;;;;8.73;57.64;100346.02;110911;1255;21961;-64
2024/03/15 00:06:18;;;;;;;56.00;49.70;;;;;;;8.73;57.69;100343.02;111053;1255;21954;-65
2024/03/15 00:08:49;;;;;;;62.90;51.70;;;;;;;8.74;57.74;100340.80;111028;1255;21950;-63
2024/03/15 00:11:18;;;;;;;58.20;50.90;;;;;;;8.75;57.67;100334.95;110983;1255;22000;-65
2024/03/15 00:13:49;;;;;;;57.80;48.50;;;;;;;8.76;57.92;100331.26;111000;1252;21959;-64
2024/03/15 00:16:18;;;;;;;59.70;51.50;;;;;;;8.75;58.00;100332.71;110978;1255;23676;-65
2024/03/15 00:18:46;;;;;;;61.00;50.00;;;;;;;8.72;58.05;100330.40;110966;1255;22424;-64
2024/03/15 00:21:17;;;;;;;66.70;50.80;;;;;;;8.69;58.21;100332.02;111011;1255;21963;-64
2024/03/15 00:23:46;;;;;;;55.10;48.30;;;;;;;8.66;58.30;100328.52;110914;1255;24097;-64
2024/03/15 00:26:15;;;;;;;61.80;51.90;;;;;;;8.65;58.10;100325.77;110883;1255;21955;-65
2024/03/15 00:28:45;;;;;;;59.10;52.90;;;;;;;8.64;58.17;100327.96;110982;1255;22750;-64
2024/03/15 00:31:14;;;;;;;54.30;48.50;;;;;;;8.65;58.41;100325.44;110975;1255;21956;-65
2024/03/15 00:33:43;;;;;;;59.80;50.30;;;;;;;8.66;58.57;100326.95;110984;1255;21972;-64
2024/03/15 00:36:17;;;;;;;60.00;50.60;;;;;;;8.66;58.54;100330.30;110972;1255;22779;-64
2024/03/15 00:38:46;;;;;;;56.40;48.70;;;;;;;8.67;58.59;100326.70;110897;1255;21960;-63
2024/03/15 00:41:15;;;;;;;57.80;49.00;;;;;;;8.69;58.57;100322.90;110962;1255;21960;-64
2024/03/15 00:43:47;;;;;;;57.10;50.60;;;;;;;8.69;58.48;100324.97;111001;1252;21967;-64
2024/03/15 00:46:17;;;;;;;63.40;56.50;;;;;;;8.68;58.50;100321.58;110974;1255;22997;-64
2024/03/15 00:48:46;;;;;;;63.10;52.60;;;;;;;8.64;58.56;100321.26;111017;1255;22085;-64
2024/03/15 00:51:15;;;;;;;61.80;52.50;;;;;;;8.60;58.65;100320.15;110949;1255;23573;-64
2024/03/15 00:53:44;;;;;;;57.90;50.60;;;;;;;8.54;58.78;100321.52;110949;1255;21966;-64
2024/03/15 00:56:13;;;;;;;57.50;50.00;;;;;;;8.51;59.11;100319.79;110956;1255;22746;-65
2024/03/15 00:58:42;;;;;;;57.20;51.00;;;;;;;8.50;59.26;100317.24;110996;1255;21962;-65
2024/03/15 01:01:12;;;;;;;57.60;51.40;;;;;;;8.48;59.39;100315.39;110853;1255;22715;-64
2024/03/15 01:03:41;;;;;;;60.10;53.10;;;;;;;8.44;59.53;100311.80;111017;1255;21962;-65
2024/03/15 01:06:13;;;;;;;63.30;54.60;;;;;;;8.41;59.70;100310.27;110970;1255;23804;-64
2024/03/15 01:08:42;;;;;;;62.90;54.70;;;;;;;8.35;59.69;100304.27;110931;1255;21993;-65
2024/03/15 01:11:11;;;;;;;62.00;54.20;;;;;;;8.29;59.92;100305.87;111010;1255;21966;-64
2024/03/15 01:13:41;;;;;;;61.20;54.60;;;;;;;8.25;60.09;100303.84;110938;1255;21965;-65
2024/03/15 01:16:11;;;;;;;59.30;53.00;;;;;;;8.22;60.09;100298.06;110910;1255;21964;-64
2024/03/15 01:18:40;;;;;;;58.10;52.00;;;;;;;8.18;60.23;100296.18;110935;1255;21989;-66
2024/03/15 01:21:09;;;;;;;61.70;51.80;;;;;;;8.16;60.29;100295.45;110898;1252;21954;-65
2024/03/15 01:23:38;;;;;;;59.00;50.90;;;;;;;8.14;60.51;100292.59;110931;1255;22033;-64
2024/03/15 01:26:07;;;;;;;60.20;53.80;;;;;;;8.12;60.75;100288.16;110991;1255;21956;-64
2024/03/15 01:28:36;;;;;;;59.50;52.60;;;;;;;8.10;60.83;100285.83;111014;1255;21956;-65
2024/03/15 01:31:04;;;;;;;68.50;59.80;;;;;;;8.08;60.90;100285.60;110921;1255;21961;-64
2024/03/15 01:33:33;;;;;;;64.00;56.50;;;;;;;8.04;60.85;100284.09;111104;1254;21945;-64
2024/03/15 01:36:03;;;;;;;66.40;56.80;;;;;;;8.04;60.63;100282.84;110998;1255;21958;-64
2024/03/15 01:38:32;;;;;;;63.10;56.20;;;;;;;8.03;61.01;100283.23;111030;1255;23096;-65
2024/03/15 01:41:01;;;;;;;61.70;55.20;;;;;;;8.01;60.97;100279.84;111046;1255;22663;-65
2024/03/15 01:43:30;;;;;;;62.80;55.90;;;;;;;8.00;60.78;100274.65;111022;1255;21965;-65
2024/03/15 01:45:59;;;;;;;61.80;54.20;;;;;;;7.99;60.76;100275.95;110922;1255;23675;-63
2024/03/15 01:48:28;;;;;;;66.20;57.00;;;;;;;7.97;60.96;100272.38;110964;1255;21988;-63
2024/03/15 01:50:57;;;;;;;63.40;55.30;;;;;;;7.96;60.66;100274.36;110935;1249;21961;-65
2024/03/15 01:53:26;;;;;;;60.50;54.00;;;;;;;7.96;60.56;100270.17;110931;1255;21963;-64
2024/03/15 01:55:55;;;;;;;65.10;56.20;;;;;;;7.95;60.67;100271.42;110921;1255;21953;-64
2024/03/15 01:58:24;;;;;;;58.80;52.60;;;;;;;7.96;60.92;100269.61;110943;1255;21961;-65
2024/03/15 02:00:56;;;;;;;65.10;58.10;;;;;;;7.96;60.93;100265.95;111031;1255;22106;-64
2024/03/15 02:03:25;;;;;;;64.20;55.90;;;;;;;7.93;60.86;100264.37;111019;1254;21958;-64
2024/03/15 02:05:55;;;;;;;61.50;53.00;;;;;;;7.91;61.04;100261.84;110980;1255;21953;-64
2024/03/15 02:08:24;;;;;;;60.50;53.40;;;;;;;7.91;61.07;100262.06;111031;1255;21958;-66
2024/03/15 02:10:53;;;;;;;64.60;54.00;;;;;;;7.88;60.98;100258.17;111004;1255;21955;-65
2024/03/15 02:13:22;;;;;;;62.50;55.00;;;;;;;7.87;61.03;100258.97;111022;1255;21956;-64
2024/03/15 02:15:51;;;;;;;61.60;54.60;;;;;;;7.85;60.86;100256.66;111007;1255;22272;-64
2024/03/15 02:18:20;;;;;;;60.30;53.40;;;;;;;7.83;60.76;100253.40;111005;1255;23012;-65
2024/03/15 02:20:49;;;;;;;61.00;54.40;;;;;;;7.79;61.16;100252.27;110863;1255;21961;-65
2024/03/15 02:23:18;;;;;;;60.80;54.10;;;;;;;7.77;61.20;100249.41;110965;1255;21957;-65
2024/03/15 02:25:47;;;;;;;60.40;52.50;;;;;;;7.75;61.34;100246.88;111011;1255;21969;-65
2024/03/15 02:28:16;;;;;;;60.40;53.30;;;;;;;7.72;61.62;100247.77;110789;1255;21956;-64
2024/03/15 02:30:45;;;;;;;65.90;54.20;;;;;;;7.69;61.41;100244.61;110891;1255;21967;-65
2024/03/15 02:33:15;;;;;;;58.70;51.90;;;;;;;7.66;61.72;100242.67;110941;1254;24097;-66
2024/03/15 02:35:44;;;;;;;64.10;52.10;;;;;;;7.66;61.57;100243.61;111010;1254;22061;-65
2024/03/15 02:38:13;;;;;;;59.30;52.40;;;;;;;7.66;61.49;100246.00;111036;1254;21961;-64
2024/03/15 02:40:42;;;;;;;55.70;49.30;;;;;;;7.69;61.55;100247.24;111079;1254;21962;-65
2024/03/15 02:43:11;;;;;;;62.10;51.80;;;;;;;7.73;61.61;100250.37;111095;1254;22026;-64
2024/03/15 02:45:40;;;;;;;59.50;51.00;;;;;;;7.80;61.43;100252.73;110898;1254;21955;-64
2024/03/15 02:48:09;;;;;;;59.30;50.90;;;;;;;7.82;61.22;100249.46;111006;1254;21968;-64
2024/03/15 02:50:38;;;;;;;60.50;52.40;;;;;;;7.88;61.13;100246.12;111030;1254;21958;-64
2024/03/15 02:53:07;;;;;;;62.90;53.90;;;;;;;7.90;61.18;100250.02;110949;1254;23224;-65
2024/03/15 02:55:36;;;;;;;62.30;55.50;;;;;;;7.91;61.01;100249.26;111060;1254;21955;-64
2024/03/15 02:58:07;;;;;;;65.00;57.90;;;;;;;7.90;60.80;100250.00;110948;1249;21978;-63
2024/03/15 03:00:36;;;;;;;61.90;55.20;;;;;;;7.88;60.73;100249.40;110988;1254;24994;-66
2024/03/15 03:03:05;;;;;;;64.20;57.20;;;;;;;7.87;60.70;100248.98;110945;1254;22410;-63
2024/03/15 03:05:36;;;;;;;64.80;55.50;;;;;;;7.85;60.61;100244.91;111006;1254;24175;-64
2024/03/15 03:08:05;;;;;;;76.20;66.80;;;;;;;7.80;60.97;100243.95;110968;1254;21970;-65
2024/03/15 03:10:34;;;;;;;65.90;58.90;;;;;;;7.78;60.91;100241.98;110961;1254;21966;-64
2024/03/15 03:13:03;;;;;;;66.00;59.10;;;;;;;7.76;61.10;100241.91;111110;1254;23806;-64
2024/03/15 03:15:32;;;;;;;68.60;60.80;;;;;;;7.75;61.09;100239.85;111036;1254;21967;-64
2024/03/15 03:18:01;;;;;;;69.00;61.60;;;;;;;7.71;60.93;100238.55;110928;1254;21959;-64
2024/03/15 03:20:32;;;;;;;67.70;57.60;;;;;;;7.68;61.24;100238.04;111099;1254;21963;-64
2024/03/15 03:23:03;;;;;;;63.40;53.80;;;;;;;7.67;61.26;100237.38;111022;1254;22026;-64
2024/03/15 03:25:33;;;;;;;57.00;50.70;;;;;;;7.67;61.00;100237.55;111025;1254;21968;-66
2024/03/15 03:28:03;;;;;;;60.30;50.70;;;;;;;7.66;61.29;100242.67;110943;1255;22916;-64
2024/03/15 03:30:31;;;;;;;65.10;52.20;;;;;;;7.69;61.26;100250.25;111050;1255;21958;-65
2024/03/15 03:33:03;;;;;;;61.00;52.20;;;;;;;7.72;61.13;100249.35;110805;1255;21958;-65
2024/03/15 03:35:32;;;;;;;60.60;53.80;;;;;;;7.77;60.57;100246.95;110898;1255;22059;-63
2024/03/15 03:38:02;;;;;;;68.20;54.10;;;;;;;7.79;60.91;100248.91;110825;1255;21960;-64
2024/03/15 03:40:33;;;;;;;58.70;52.50;;;;;;;7.79;60.90;100247.03;110818;1255;23585;-64
2024/03/15 03:43:02;;;;;;;60.80;54.20;;;;;;;7.76;60.72;100246.85;110909;1255;21969;-63
2024/03/15 03:45:31;;;;;;;63.00;56.00;;;;;;;7.74;60.64;100249.23;110895;1255;21950;-64
2024/03/15 03:48:00;;;;;;;65.60;56.60;;;;;;;7.74;60.98;100247.30;110867;1255;21963;-64
2024/03/15 03:50:29;;;;;;;61.70;53.80;;;;;;;7.74;60.60;100241.86;110900;1255;22599;-66
2024/03/15 03:52:58;;;;;;;65.90;55.50;;;;;;;7.75;60.73;100240.23;110847;1255;21958;-65
2024/03/15 03:55:27;;;;;;;69.70;56.40;;;;;;;7.74;61.02;100236.61;110938;1255;22029;-64
2024/03/15 03:57:57;;;;;;;62.50;55.60;;;;;;;7.76;61.20;100240.86;111011;1255;21952;-65
2024/03/15 04:00:26;;;;;;;63.60;52.80;;;;;;;7.80;60.90;100242.74;110944;1255;24371;-65
2024/03/15 04:02:55;;;;;;;62.90;53.30;;;;;;;7.78;61.08;100243.57;110978;1255;21952;-64
2024/03/15 04:05:24;;;;;;;62.40;53.80;;;;;;;7.77;60.86;100247.46;110878;1255;21963;-71
2024/03/15 04:07:54;;;;;;;62.80;54.00;;;;;;;7.78;61.09;100244.80;110836;1255;22003;-64
2024/03/15 04:10:24;;;;;;;62.90;54.00;;;;;;;7.76;61.20;100243.66;110888;1255;23009;-64
2024/03/15 04:12:55;;;;;;;60.10;52.90;;;;;;;7.75;61.14;100245.87;110889;1255;21998;-69
2024/03/15 04:15:24;;;;;;;70.80;62.90;;;;;;;7.71;61.38;100245.05;110845;1255;21945;-63
2024/03/15 04:17:58;;;;;;;79.50;67.50;;;;;;;7.69;61.10;100245.88;110947;1255;21950;-64
2024/03/15 04:20:29;;;;;;;62.40;55.40;;;;;;;7.65;61.30;100243.63;110968;1255;21939;-65
2024/03/15 04:22:58;;;;;;;62.90;54.60;;;;;;;7.63;61.35;100245.35;111001;1255;23621;-64
2024/03/15 04:25:28;;;;;;;64.00;54.30;;;;;;;7.58;61.53;100243.52;110970;1255;23631;-63
2024/03/15 04:27:56;;;;;;;65.60;56.20;;;;;;;7.54;61.71;100244.46;110863;1255;21967;-66
2024/03/15 04:30:28;;;;;;;58.20;51.70;;;;;;;7.52;61.88;100246.70;110858;1255;21968;-66
2024/03/15 04:32:57;;;;;;;62.60;55.30;;;;;;;7.51;62.34;100251.80;111079;1255;23717;-65
2024/03/15 04:35:27;;;;;;;66.60;53.70;;;;;;;7.56;61.85;100255.23;111044;1255;21946;-66
2024/03/15 04:37:57;;;;;;;60.30;53.20;;;;;;;7.58;61.98;100252.28;110812;1255;23707;-65
2024/03/15 04:40:28;;;;;;;65.90;57.10;;;;;;;7.57;62.19;100252.52;110932;1255;23679;-64
2024/03/15 04:42:58;;;;;;;65.20;56.30;;;;;;;7.53;62.27;100252.08;110897;1255;21964;-65
2024/03/15 04:45:27;;;;;;;64.40;57.10;;;;;;;7.51;62.10;100253.77;110904;1255;23690;-65
2024/03/15 04:47:56;;;;;;;68.10;57.00;;;;;;;7.50;62.23;100253.45;110875;1255;21945;-65
2024/03/15 04:50:25;;;;;;;68.30;58.10;;;;;;;7.49;62.19;100253.52;110849;1255;21965;-66
2024/03/15 04:52:54;;;;;;;68.00;57.40;;;;;;;7.50;62.35;100253.82;110762;1255;21955;-64
2024/03/15 04:55:24;;;;;;;64.40;56.20;;;;;;;7.49;62.25;100248.98;110893;1255;21958;-66
2024/03/15 04:57:55;;;;;;;69.30;56.70;;;;;;;7.40;62.59;100246.53;110804;1255;22120;-66
2024/03/15 05:00:25;;;;;;;64.30;54.40;;;;;;;7.31;62.79;100245.09;110922;1255;22931;-65
2024/03/15 05:02:54;;;;;;;66.10;55.90;;;;;;;7.30;62.83;100242.01;110967;1255;21962;-64
2024/03/15 05:05:26;;;;;;;;;;;;;;;7.26;63.06;100240.67;110911;1255;22400;-67
2024/03/15 05:07:56;;;;;;;74.20;62.20;;;;;;;7.13;63.54;100239.73;110866;1255;21998;-65
2024/03/15 05:10:25;;;;;;;69.60;61.90;;;;;;;7.10;63.95;100239.17;110887;1255;21966;-64
2024/03/15 05:12:54;;;;;;;75.10;60.90;;;;;;;7.10;63.80;100239.33;110904;1255;21963;-66
2024/03/15 05:15:23;;;;;;;71.90;59.90;;;;;;;7.11;63.85;100238.92;110845;1255;22424;-65
2024/03/15 05:17:52;;;;;;;68.20;59.50;;;;;;;7.12;63.85;100239.71;110911;1255;22007;-65
2024/03/15 05:20:21;;;;;;;67.20;59.80;;;;;;;7.15;63.66;100239.39;110841;1255;22018;-65
2024/03/15 05:22:50;;;;;;;67.10;58.80;;;;;;;7.19;63.64;100238.47;110935;1255;25084;-65
2024/03/15 05:25:19;;;;;;;69.40;61.10;;;;;;;7.21;63.43;100239.39;110934;1255;24227;-65
2024/03/15 05:27:49;;;;;;;68.70;58.50;;;;;;;7.22;63.53;100242.13;110951;1255;21969;-65
2024/03/15 05:30:19;;;;;;;72.10;62.40;;;;;;;7.20;63.55;100238.92;110940;1255;21964;-65
2024/03/15 05:32:48;;;;;;;71.80;64.20;;;;;;;7.18;63.52;100240.95;110908;1255;23679;-65
2024/03/15 05:35:21;;;;;;;72.90;65.00;;;;;;;7.19;63.57;100238.07;111082;1255;24313;-66
2024/03/15 05:37:51;;;;;;;77.50;69.10;;;;;;;7.21;63.44;100237.45;110977;1255;23433;-65
2024/03/15 05:40:26;;;;;;;74.80;66.80;;;;;;;7.27;63.25;100238.00;110891;1255;21959;-67
2024/03/15 05:42:55;;;;;;;76.70;68.30;;;;;;;7.30;63.11;100236.94;110960;1255;22423;-67
2024/03/15 05:45:24;;;;;;;76.90;66.50;;;;;;;7.36;62.96;100237.66;110875;1255;21959;-66
2024/03/15 05:47:53;;;;;;;75.80;64.80;;;;;;;7.41;62.87;100242.95;110925;1255;22732;-65
2024/03/15 05:50:22;;;;;;;76.90;64.10;;;;;;;7.46;62.47;100241.09;110983;1255;22057;-65
2024/03/15 05:52:51;;;;;;;67.80;59.30;;;;;;;7.50;62.10;100238.91;110989;1255;21977;-65
2024/03/15 05:55:20;;;;;;;74.40;60.50;;;;;;;7.50;61.73;100239.77;110891;1255;21965;-66
2024/03/15 05:57:49;;;;;;;70.50;60.50;;;;;;;7.50;61.71;100239.62;110958;1255;21979;-63
2024/03/15 06:00:21;;;;;;;72.20;60.80;;;;;;;7.50;61.83;100241.36;110900;1255;23773;-63
2024/03/15 06:02:51;;;;;;;68.60;59.40;;;;;;;7.53;61.84;100237.90;110816;1255;21959;-63
2024/03/15 06:05:22;;;;;;;66.80;58.20;;;;;;;7.57;61.95;100235.39;110918;1255;21963;-65
2024/03/15 06:07:52;;;;;;;64.40;56.80;;;;;;;7.63;61.90;100234.29;110901;1255;23276;-65
2024/03/15 06:10:25;;;;;;;68.50;56.30;;;;;;;7.68;61.54;100235.73;110863;1255;22612;-66
2024/03/15 06:12:57;;;;;;;61.90;53.40;;;;;;;7.73;61.18;100237.02;110980;1255;21962;-66
2024/03/15 06:15:26;;;;;;;63.10;55.50;;;;;;;7.79;61.07;100240.86;110901;1255;21955;-65
2024/03/15 06:17:55;;;;;;;65.90;55.50;;;;;;;7.86;61.09;100242.02;111001;1255;21958;-64
2024/03/15 06:20:24;;;;;;;65.70;57.70;;;;;;;7.85;60.71;100243.65;111026;1255;23595;-64
2024/03/15 06:22:53;;;;;;;64.00;53.00;;;;;;;7.87;60.85;100243.86;110975;1255;21955;-64
2024/03/15 06:25:23;;;;;;;61.10;52.30;;;;;;;7.91;60.83;100246.96;110936;1255;21960;-65
2024/03/15 06:27:52;;;;;;;62.20;54.70;;;;;;;7.90;60.61;100244.54;110982;1255;23051;-64
2024/03/15 06:30:22;;;;;;;66.90;55.00;;;;;;;7.91;60.92;100247.31;110971;1255;21963;-66
2024/03/15 06:32:51;;;;;;;103.60;84.90;;;;;;;7.94;60.87;100247.83;110952;1255;22122;-65
2024/03/15 06:35:27;;;;;;;86.40;69.80;;;;;;;8.00;60.86;100247.68;110855;1255;21956;-65
2024/03/15 06:38:28;;;;;;;66.30;56.80;;;;;;;8.03;60.55;100251.16;110884;1255;21958;-64
2024/03/15 06:41:07;;;;;;;65.50;54.20;;;;;;;8.01;60.40;100248.67;110967;1255;22092;-65
2024/03/15 06:44:35;;;;;;;65.60;54.10;;;;;;;8.00;60.24;100245.75;110970;1255;22739;-67
2024/03/15 06:46:42;;;;;;;75.50;60.70;;;;;;;8.00;60.54;100245.02;110833;1255;22518;-66
2024/03/15 06:49:16;;;;;;;70.70;56.60;;;;;;;8.06;60.50;100245.71;110830;1255;21959;-64
2024/03/15 06:54:33;;;;;;;68.30;53.90;;;;;;;8.21;60.01;100249.70;111030;1255;21958;-66
2024/03/15 06:57:02;;;;;;;65.60;54.30;;;;;;;8.28;60.04;100251.73;110927;1255;23751;-65
2024/03/15 06:59:32;;;;;;;68.10;53.40;;;;;;;8.35;59.95;100250.95;111090;1255;21963;-65
2024/03/15 07:02:00;;;;;;;65.00;53.30;;;;;;;8.43;59.74;100247.63;110876;1255;21947;-65
2024/03/15 07:04:29;;;;;;;86.70;67.30;;;;;;;8.53;59.65;100251.95;110878;1255;21954;-66
2024/03/15 07:06:58;;;;;;;89.80;68.50;;;;;;;8.62;58.79;100249.26;110926;1255;22075;-65
2024/03/15 07:09:27;;;;;;;92.80;63.10;;;;;;;8.65;58.35;100249.46;110986;1255;21945;-65
2024/03/15 07:11:58;;;;;;;67.20;54.00;;;;;;;8.66;58.34;100251.14;110909;1255;21959;-65
2024/03/15 07:14:26;;;;;;;61.60;50.30;;;;;;;8.69;58.24;100247.10;111181;1254;21943;-67
2024/03/15 07:16:55;;;;;;;58.60;49.20;;;;;;;8.71;58.26;100246.95;111309;1254;21974;-65
2024/03/15 07:19:24;;;;;;;53.80;47.90;;;;;;;8.75;58.30;100245.80;111028;1254;22678;-66
2024/03/15 07:21:55;;;;;;;57.30;49.70;;;;;;;8.81;58.00;100245.21;111061;1254;21966;-65
2024/03/15 07:24:24;;;;;;;59.70;50.20;;;;;;;8.89;57.93;100242.29;111039;1254;23630;-64
2024/03/15 07:26:54;;;;;;;65.10;51.60;;;;;;;8.92;57.94;100239.95;110959;1254;21962;-66
2024/03/15 07:29:23;;;;;;;52.50;46.70;;;;;;;8.98;57.57;100243.58;110999;1254;21976;-64
2024/03/15 07:31:54;;;;;;;56.30;47.70;;;;;;;8.98;57.27;100242.35;111006;1254;21959;-66
2024/03/15 07:34:24;;;;;;;64.30;48.80;;;;;;;9.00;57.06;100241.69;111112;1241;21983;-65
2024/03/15 07:36:56;;;;;;;66.00;57.60;;;;;;;9.09;57.18;100238.55;111035;1254;21941;-65
2024/03/15 07:39:32;;;;;;;54.70;47.00;;;;;;;9.18;56.73;100237.18;110983;1254;23576;-66
2024/03/15 07:42:01;;;;;;;53.50;47.60;;;;;;;9.24;56.43;100237.14;110997;1241;23081;-65
2024/03/15 07:44:30;;;;;;;58.80;48.60;;;;;;;9.27;56.20;100234.83;110846;1254;22055;-67
2024/03/15 07:46:59;;;;;;;63.70;52.60;;;;;;;9.32;56.29;100237.13;110975;1253;22036;-66
2024/03/15 07:49:29;;;;;;;81.30;62.70;;;;;;;9.41;55.86;100237.25;111017;1254;21958;-66
2024/03/15 07:51:58;;;;;;;61.10;52.90;;;;;;;9.51;55.66;100235.51;111009;1254;21972;-64
2024/03/15 07:54:28;;;;;;;66.10;51.30;;;;;;;9.56;55.13;100237.98;111010;1253;21956;-65
2024/03/15 07:56:57;;;;;;;55.00;46.70;;;;;;;9.54;54.99;100236.17;111037;1254;24095;-66
2024/03/15 07:59:26;;;;;;;50.10;44.70;;;;;;;9.55;55.05;100235.60;111054;1254;21956;-66
2024/03/15 08:01:55;;;;;;;62.60;49.60;;;;;;;9.61;54.90;100239.64;110957;1254;22719;-65
2024/03/15 08:04:25;;;;;;;55.40;49.40;;;;;;;9.70;54.74;100237.79;111075;1244;21955;-65
2024/03/15 08:06:55;;;;;;;157.60;63.50;;;;;;;9.80;54.48;100239.69;111012;1254;21955;-67
2024/03/15 08:09:24;;;;;;;59.20;49.80;;;;;;;9.91;54.63;100240.31;110990;1248;21973;-67
2024/03/15 08:11:53;;;;;;;59.80;52.50;;;;;;;10.04;54.00;100240.67;111031;1254;21955;-72
2024/03/15 08:14:23;;;;;;;56.50;50.60;;;;;;;10.14;53.49;100239.45;111268;1254;21990;-68
2024/03/15 08:16:52;;;;;;;57.00;48.30;;;;;;;10.23;53.28;100241.64;111028;1254;21979;-68
2024/03/15 08:19:22;;;;;;;59.90;50.00;;;;;;;10.32;53.30;100241.89;111040;1254;21960;-67
2024/03/15 08:21:52;;;;;;;55.60;47.30;;;;;;;10.41;52.66;100240.52;111066;1254;21961;-67
2024/03/15 08:24:26;;;;;;;;;;;;;;;10.48;52.59;100240.26;111032;1244;22677;-67
2024/03/15 08:26:56;;;;;;;52.50;47.00;;;;;;;10.44;52.69;100241.91;111022;1254;21967;-67
2024/03/15 08:29:25;;;;;;;59.80;49.20;;;;;;;10.46;52.51;100238.64;111024;1254;22164;-67
2024/03/15 08:31:55;;;;;;;55.50;47.20;;;;;;;10.58;52.58;100237.40;111008;1254;23614;-67
2024/03/15 08:34:26;;;;;;;57.60;48.60;;;;;;;10.67;51.29;100235.70;111065;1254;21966;-71
2024/03/15 08:36:56;;;;;;;62.40;48.60;;;;;;;10.74;51.19;100237.14;110888;1246;23023;-66
2024/03/15 08:39:25;;;;;;;58.20;44.30;;;;;;;10.88;51.04;100236.14;110996;1254;21957;-68
2024/03/15 08:41:54;;;;;;;51.30;43.00;;;;;;;11.02;50.64;100232.44;110951;1254;22055;-67
2024/03/15 08:44:23;;;;;;;71.30;45.50;;;;;;;11.20;50.34;100228.45;111062;1254;21958;-67
2024/03/15 08:46:52;;;;;;;62.40;45.00;;;;;;;11.45;49.50;100224.66;111017;1250;21974;-67
2024/03/15 08:49:23;;;;;;;50.70;44.30;;;;;;;11.70;49.05;100222.40;110964;1254;22040;-68
2024/03/15 08:51:53;;;;;;;53.40;43.40;;;;;;;11.93;49.22;100227.72;111327;1242;21975;-67
2024/03/15 08:54:22;;;;;;;45.10;40.30;;;;;;;12.21;48.11;100226.26;110899;1242;23022;-69
2024/03/15 08:56:51;;;;;;;45.20;39.80;;;;;;;12.39;46.94;100224.80;111227;1243;22687;-66
2024/03/15 08:59:20;;;;;;;48.50;43.40;;;;;;;12.51;46.55;100225.24;111267;1254;21953;-69
2024/03/15 09:01:48;;;;;;;64.30;53.10;;;;;;;12.64;46.06;100223.36;110992;1254;24182;-67
2024/03/15 09:04:18;;;;;;;50.60;44.90;;;;;;;12.71;45.71;100220.42;111041;1254;22140;-68
2024/03/15 09:06:47;;;;;;;55.70;43.20;;;;;;;12.88;45.83;100219.73;111084;1254;23047;-67
2024/03/15 09:09:21;;;;;;;55.20;47.70;;;;;;;13.03;45.54;100212.38;111050;1254;21963;-69
2024/03/15 09:11:49;;;;;;;58.90;52.60;;;;;;;13.09;45.36;100209.02;110949;1254;23696;-69
2024/03/15 09:14:19;;;;;;;50.70;40.40;;;;;;;13.12;44.82;100207.35;110881;1254;21966;-68
2024/03/15 09:16:50;;;;;;;40.10;36.00;;;;;;;13.19;44.64;100212.46;110916;1254;178540;-68
2024/03/15 09:19:21;;;;;;;;;;;;;;;13.21;44.24;100211.54;111033;1254;23700;-68
2024/03/15 09:21:51;;;;;;;39.10;34.10;;;;;;;13.12;44.71;100209.31;111315;1254;23054;-68
2024/03/15 09:24:20;;;;;;;40.30;36.00;;;;;;;13.18;44.72;100212.52;110985;1254;24006;-69
2024/03/15 09:26:49;;;;;;;39.90;35.80;;;;;;;13.28;44.15;100209.02;111068;1254;22936;-68
2024/03/15 09:29:19;;;;;;;42.70;38.10;;;;;;;13.38;43.81;100209.64;111289;1252;21993;-69
2024/03/15 09:31:51;;;;;;;36.50;32.90;;;;;;;13.46;42.91;100216.18;111183;1254;22040;-68
2024/03/15 09:34:46;;;;;;;42.90;37.90;;;;;;;13.36;42.94;100209.42;110970;1254;21958;-68
2024/03/15 09:37:16;;;;;;;38.30;32.40;;;;;;;13.38;42.94;100205.55;111020;1254;21952;-68
2024/03/15 09:39:45;;;;;;;46.40;41.60;;;;;;;13.45;42.86;100203.91;111021;1254;21955;-68
2024/03/15 09:42:17;;;;;;;37.90;34.00;;;;;;;13.38;42.11;100204.01;110981;1254;22509;-69
2024/03/15 09:44:48;;;;;;;39.30;32.20;;;;;;;13.41;42.50;100196.26;110960;1254;21961;-69
2024/03/15 09:47:18;;;;;;;36.60;32.80;;;;;;;13.44;42.44;100196.95;110912;1254;23022;-71
2024/03/15 09:49:49;;;;;;;36.40;32.80;;;;;;;13.48;42.82;100190.23;111203;1254;21946;-66
2024/03/15 09:52:18;;;;;;;42.50;37.80;;;;;;;13.62;42.86;100190.27;111022;1254;23678;-67
2024/03/15 09:54:48;;;;;;;44.10;35.50;;;;;;;13.82;42.35;100191.21;111128;1254;21956;-68
2024/03/15 09:57:18;;;;;;;39.80;33.60;;;;;;;13.85;41.94;100190.38;110993;1254;21966;-68
2024/03/15 09:59:48;;;;;;;38.10;34.00;;;;;;;13.82;42.22;100185.58;111372;1253;21979;-68
2024/03/15 10:02:25;;;;;;;36.20;32.60;;;;;;;13.94;42.76;100181.10;111103;1254;21943;-70
2024/03/15 10:04:54;;;;;;;36.70;33.00;;;;;;;14.10;42.16;100178.38;111499;1254;24099;-67
2024/03/15 10:07:23;;;;;;;37.70;33.80;;;;;;;14.20;41.75;100177.80;111299;1254;23587;-68
2024/03/15 10:09:52;;;;;;;34.30;30.40;;;;;;;14.30;41.51;100176.04;111322;1254;22135;-69
2024/03/15 10:12:21;;;;;;;35.10;31.20;;;;;;;14.48;41.42;100177.11;111282;1254;21969;-66
2024/03/15 10:14:52;;;;;;;33.60;30.20;;;;;;;14.60;40.65;100178.07;111064;1254;21964;-67
2024/03/15 10:17:23;;;;;;;33.70;30.50;;;;;;;14.54;40.78;100175.54;111275;1254;21974;-68
2024/03/15 10:19:52;;;;;;;34.90;31.20;;;;;;;14.58;41.15;100173.81;111018;1254;21964;-69
2024/03/15 10:22:21;;;;;;;33.60;30.00;;;;;;;14.71;40.99;100167.82;111307;1254;21959;-73
2024/03/15 10:24:51;;;;;;;33.20;29.90;;;;;;;14.91;41.09;100171.08;110977;1254;22468;-68
2024/03/15 10:27:22;;;;;;;34.50;30.80;;;;;;;15.17;40.74;100168.38;110972;1244;21962;-70
2024/03/15 10:29:51;;;;;;;36.00;32.40;;;;;;;15.25;39.59;100166.41;110950;1254;23026;-69
2024/03/15 10:32:21;;;;;;;32.10;28.80;;;;;;;15.20;39.73;100166.70;110933;1243;22750;-68
2024/03/15 10:34:50;;;;;;;30.50;27.40;;;;;;;15.30;39.90;100160.05;110906;1255;22920;-69
2024/03/15 10:37:21;;;;;;;29.20;26.30;;;;;;;15.42;39.00;100156.64;110850;1255;23007;-69
2024/03/15 10:39:52;;;;;;;27.90;25.30;;;;;;;15.43;38.86;100154.82;110928;1255;23092;-68
2024/03/15 10:42:23;;;;;;;27.90;25.20;;;;;;;15.44;38.99;100159.64;111054;1255;22424;-69
2024/03/15 10:44:52;;;;;;;30.90;26.70;;;;;;;15.47;39.46;100153.84;110911;1255;21956;-67
2024/03/15 10:47:21;;;;;;;31.50;28.50;;;;;;;15.63;39.27;100154.30;111022;1255;21961;-68
2024/03/15 10:49:54;;;;;;;25.90;23.40;;;;;;;15.77;38.94;100158.23;110886;1255;22154;-68
2024/03/15 10:52:23;;;;;;;24.90;22.30;;;;;;;15.76;38.38;100154.77;111018;1255;22051;-69
2024/03/15 10:54:53;;;;;;;30.20;27.30;;;;;;;15.63;38.33;100152.73;110815;1255;21959;-70
2024/03/15 10:57:23;;;;;;;25.30;22.60;;;;;;;15.61;38.58;100148.89;110799;1254;23312;-70
2024/03/15 10:59:53;;;;;;;24.10;21.70;;;;;;;15.66;38.54;100145.36;110969;1254;21956;-68
2024/03/15 11:02:25;;;;;;;24.30;21.80;;;;;;;15.72;38.94;100141.09;111007;1254;23384;-69
2024/03/15 11:04:54;;;;;;;23.10;20.60;;;;;;;15.82;38.74;100137.63;111001;1254;22453;-70
2024/03/15 11:07:23;;;;;;;25.50;22.80;;;;;;;15.92;38.34;100133.27;110983;1254;21962;-69
2024/03/15 11:09:56;;;;;;;25.40;22.60;;;;;;;16.18;38.18;100134.90;111183;1248;21961;-70
2024/03/15 11:12:36;;;;;;;23.50;21.10;;;;;;;16.62;38.28;100131.66;111378;1242;21952;-68
2024/03/15 11:15:14;;;;;;;24.20;21.60;;;;;;;17.14;37.14;100128.97;111148;1254;23587;-68
2024/03/15 11:17:43;;;;;;;24.60;22.20;;;;;;;17.48;36.33;100128.54;110859;1255;21973;-69
2024/03/15 11:20:13;;;;;;;24.90;22.70;;;;;;;17.88;36.14;100128.45;110943;1255;21945;-68
2024/03/15 11:22:42;;;;;;;22.60;20.30;;;;;;;18.31;35.58;100128.52;111080;1255;23702;-70